Time;durP1;ratioP1;P1;durP2;ratioP2;P2;SDS_P1;SDS_P2;PMS_P1;PMS_P2;Temp;Humidity;BMP_temperature;BMP_pressure;BME280_temperature;BME280_humidity;BME280_pressure;Samples;Min_cycle;Max_cycle;Signal;HPM_P1;HPM_P2
2023/03/03 00:01:24;;;;;;;43.53;14.23;;;;;;;1.70;100.00;102189.66;6323246;28;20454;-71
2023/03/03 00:04:25;;;;;;;32.17;12.68;;;;;;;1.49;100.00;102198.13;6323324;28;20333;-71
2023/03/03 00:07:28;;;;;;;44.78;13.45;;;;;;;1.40;100.00;102191.16;6324986;28;20048;-71
2023/03/03 00:10:29;;;;;;;43.10;12.25;;;;;;;1.44;100.00;102186.88;6324678;28;20463;-71
2023/03/03 00:13:32;;;;;;;43.85;15.18;;;;;;;1.43;100.00;102179.94;6324277;28;20352;-71
2023/03/03 00:16:37;;;;;;;41.17;15.15;;;;;;;1.41;100.00;102186.81;6324882;28;20044;-71
2023/03/03 00:19:40;;;;;;;37.45;13.13;;;;;;;1.43;100.00;102182.53;6316852;28;20055;-71
2023/03/03 00:22:42;;;;;;;28.85;11.77;;;;;;;1.47;100.00;102184.31;6324920;28;20129;-71
2023/03/03 00:25:45;;;;;;;35.50;12.27;;;;;;;1.39;100.00;102194.59;6324908;28;20048;-71
2023/03/03 00:28:49;;;;;;;40.67;14.25;;;;;;;1.28;100.00;102191.06;6324923;28;20048;-71
2023/03/03 00:31:50;;;;;;;33.10;12.38;;;;;;;1.27;100.00;102185.03;6323374;28;20040;-71
2023/03/03 00:34:53;;;;;;;36.15;13.85;;;;;;;1.28;100.00;102178.13;6314620;28;20348;-71
2023/03/03 00:37:57;;;;;;;32.67;11.07;;;;;;;1.37;100.00;102185.97;6302463;28;20433;-71
2023/03/03 00:40:58;;;;;;;31.45;10.30;;;;;;;1.33;100.00;102183.34;6304901;28;20060;-71
2023/03/03 00:44:40;;;;;;;38.53;11.73;;;;;;;1.32;100.00;102181.56;6304507;28;20123;-71
2023/03/03 00:47:43;;;;;;;27.85;9.27;;;;;;;1.38;100.00;102195.47;6304263;28;20059;-71
2023/03/03 00:50:44;;;;;;;27.98;11.88;;;;;;;1.37;100.00;102196.31;6304787;28;20044;-71
2023/03/03 00:53:47;;;;;;;31.08;11.38;;;;;;;1.32;100.00;102192.84;6304187;28;20045;-71
2023/03/03 00:56:48;;;;;;;31.27;12.15;;;;;;;1.32;100.00;102198.00;6304682;28;20058;-71
2023/03/03 00:59:50;;;;;;;30.23;10.82;;;;;;;1.37;100.00;102191.16;6306159;28;20048;-71
2023/03/03 01:02:51;;;;;;;29.25;10.20;;;;;;;1.27;100.00;102186.72;6307585;28;20048;-71
2023/03/03 01:05:54;;;;;;;29.00;9.35;;;;;;;1.27;100.00;102202.25;6304542;28;20206;-71
2023/03/03 01:08:56;;;;;;;36.55;11.35;;;;;;;1.20;100.00;102203.94;6310172;28;20055;-71
2023/03/03 01:11:58;;;;;;;33.17;10.32;;;;;;;1.10;100.00;102202.13;6309675;28;20044;-71
2023/03/03 01:14:59;;;;;;;30.23;12.13;;;;;;;1.18;100.00;102203.06;6303782;28;20044;-71
2023/03/03 01:18:01;;;;;;;33.15;11.48;;;;;;;1.19;100.00;102209.97;6312154;28;20049;-71
2023/03/03 01:21:02;;;;;;;29.52;9.60;;;;;;;1.17;100.00;102209.09;6303636;28;20353;-71
2023/03/03 01:24:05;;;;;;;35.45;11.05;;;;;;;1.17;100.00;102211.66;6303563;28;20052;-71
2023/03/03 01:27:07;;;;;;;26.83;10.85;;;;;;;1.14;100.00;102214.25;6307471;28;20048;-71
2023/03/03 01:30:09;;;;;;;31.45;10.77;;;;;;;1.17;100.00;102206.50;6307589;28;20048;-71
2023/03/03 01:33:11;;;;;;;29.55;10.70;;;;;;;1.07;100.00;102202.09;6310826;28;20043;-71
2023/03/03 01:36:12;;;;;;;28.00;9.77;;;;;;;1.09;100.00;102205.59;6327867;28;20368;-71
2023/03/03 01:39:14;;;;;;;28.17;9.77;;;;;;;1.04;100.00;102206.38;6328567;28;20055;-71
2023/03/03 01:42:16;;;;;;;33.10;11.07;;;;;;;1.04;100.00;102207.22;6328401;28;20074;-71
2023/03/03 01:45:22;;;;;;;31.15;11.25;;;;;;;1.10;100.00;102206.44;6328106;28;20348;-71
2023/03/03 01:48:29;;;;;;;36.65;11.68;;;;;;;1.07;100.00;102201.22;6327385;28;20040;-71
2023/03/03 01:51:33;;;;;;;27.45;10.10;;;;;;;1.15;100.00;102202.19;6328283;28;20055;-71
2023/03/03 01:54:39;;;;;;;35.78;11.77;;;;;;;1.12;100.00;102194.38;6327890;28;20134;-71
2023/03/03 01:57:44;;;;;;;29.52;10.27;;;;;;;1.16;100.00;102194.41;6315281;28;20361;-71
2023/03/03 02:00:49;;;;;;;32.90;11.18;;;;;;;1.17;100.00;102192.69;6310210;28;20425;-71
2023/03/03 02:03:52;;;;;;;46.63;13.85;;;;;;;1.20;100.00;102182.38;6306031;28;20044;-71
2023/03/03 02:06:57;;;;;;;36.88;10.90;;;;;;;1.21;100.00;102181.50;6327615;28;20048;-71
2023/03/03 02:10:06;;;;;;;26.77;9.48;;;;;;;1.22;100.00;102184.09;6327665;28;20052;-71
2023/03/03 02:13:07;;;;;;;28.52;9.40;;;;;;;1.22;100.00;102178.91;6327649;28;20036;-71
2023/03/03 02:16:08;;;;;;;34.97;10.43;;;;;;;1.27;100.00;102182.44;6327494;28;20135;-71
2023/03/03 02:19:16;;;;;;;26.02;10.60;;;;;;;1.29;100.00;102179.00;6327738;28;20060;-71
2023/03/03 02:22:23;;;;;;;25.70;9.80;;;;;;;1.25;100.00;102171.19;6327406;28;20041;-71
2023/03/03 02:25:33;;;;;;;25.17;9.10;;;;;;;1.23;100.00;102165.13;6327395;28;20051;-71
2023/03/03 02:28:38;;;;;;;30.27;11.00;;;;;;;1.31;100.00;102169.50;6327454;28;20055;-71
2023/03/03 02:31:39;;;;;;;28.85;8.85;;;;;;;1.30;100.00;102163.44;6319175;28;20051;-71
2023/03/03 02:34:46;;;;;;;24.98;9.45;;;;;;;1.29;100.00;102161.72;6325196;28;20048;-71
2023/03/03 02:37:49;;;;;;;24.05;9.30;;;;;;;1.22;100.00;102155.63;6327041;28;20048;-71
2023/03/03 02:41:01;;;;;;;34.60;11.35;;;;;;;1.17;100.00;102156.44;6326876;28;20134;-71
2023/03/03 02:44:07;;;;;;;40.45;13.57;;;;;;;1.14;100.00;102154.72;6326809;28;20040;-71
2023/03/03 02:47:08;;;;;;;24.48;9.95;;;;;;;1.21;100.00;102151.28;6327054;28;20048;-71
2023/03/03 02:50:10;;;;;;;31.33;9.48;;;;;;;1.30;100.00;102150.50;6326873;28;20051;-71
2023/03/03 02:53:12;;;;;;;31.02;10.52;;;;;;;1.31;100.00;102153.97;6313734;28;20055;-71
2023/03/03 02:56:13;;;;;;;34.75;10.52;;;;;;;1.28;100.00;102160.00;6320322;28;20044;-72
2023/03/03 02:59:16;;;;;;;33.13;11.02;;;;;;;1.25;100.00;102158.25;6309652;28;20432;-71
2023/03/03 03:02:19;;;;;;;42.42;11.70;;;;;;;1.24;100.00;102164.28;6305114;28;20048;-71
2023/03/03 03:05:20;;;;;;;24.13;8.55;;;;;;;1.27;100.00;102161.72;6302740;28;20049;-71
2023/03/03 03:08:21;;;;;;;25.65;9.95;;;;;;;1.28;100.00;102157.41;6309356;28;20064;-71
2023/03/03 03:11:23;;;;;;;27.10;9.75;;;;;;;1.27;100.00;102164.31;6301136;28;20056;-71
2023/03/03 03:14:25;;;;;;;35.33;11.60;;;;;;;1.28;100.00;102167.75;6318611;28;20036;-71
2023/03/03 03:17:27;;;;;;;33.55;11.52;;;;;;;1.26;100.00;102175.50;6325996;28;20048;-71
2023/03/03 03:20:28;;;;;;;24.98;8.70;;;;;;;1.26;100.00;102172.03;6314205;28;20044;-71
2023/03/03 03:23:29;;;;;;;31.60;10.55;;;;;;;1.14;100.00;102165.06;6302141;28;20048;-71
2023/03/03 03:26:31;;;;;;;31.25;11.43;;;;;;;1.01;100.00;102160.63;6316162;28;20055;-71
2023/03/03 03:29:33;;;;;;;36.38;11.50;;;;;;;1.04;100.00;102152.00;6325938;28;20070;-71
2023/03/03 03:32:35;;;;;;;28.42;11.00;;;;;;;0.92;100.00;102156.25;6325737;28;20048;-71
2023/03/03 03:35:36;;;;;;;32.50;9.90;;;;;;;0.94;100.00;102158.81;6323710;28;20048;-71
2023/03/03 03:38:38;;;;;;;38.65;12.48;;;;;;;0.93;100.00;102155.38;6317433;28;20052;-71
2023/03/03 03:41:40;;;;;;;33.20;10.73;;;;;;;0.99;100.00;102163.19;6305495;28;20329;-71
2023/03/03 03:44:42;;;;;;;40.45;13.95;;;;;;;1.04;100.00;102167.53;6300254;28;20361;-71
2023/03/03 03:47:44;;;;;;;36.65;11.73;;;;;;;1.10;100.00;102168.47;6300993;28;20055;-71
2023/03/03 03:50:46;;;;;;;30.55;11.18;;;;;;;1.03;100.00;102171.84;6308396;28;20445;-71
2023/03/03 03:53:48;;;;;;;29.15;10.05;;;;;;;1.07;100.00;102181.38;6325117;28;20044;-71
2023/03/03 03:56:49;;;;;;;39.55;12.68;;;;;;;0.97;100.00;102177.00;6325263;28;20051;-71
2023/03/03 03:59:52;;;;;;;29.77;11.20;;;;;;;1.03;100.00;102177.03;6325421;28;20055;-71
2023/03/03 04:02:53;;;;;;;31.48;11.80;;;;;;;1.09;100.00;102181.38;6314923;28;20048;-71
2023/03/03 04:05:55;;;;;;;38.95;11.50;;;;;;;1.12;100.00;102178.84;6320355;28;20044;-71
2023/03/03 04:08:56;;;;;;;33.80;11.98;;;;;;;1.15;100.00;102182.31;6325002;28;20329;-71
2023/03/03 04:11:57;;;;;;;38.15;11.60;;;;;;;1.10;100.00;102184.00;6325228;28;20055;-71
2023/03/03 04:15:00;;;;;;;33.92;12.23;;;;;;;1.14;100.00;102182.31;6325028;28;20047;-71
2023/03/03 04:18:02;;;;;;;45.30;15.38;;;;;;;1.03;100.00;102179.63;6321535;28;20045;-71
2023/03/03 04:21:03;;;;;;;39.67;12.90;;;;;;;1.00;100.00;102175.31;6300152;28;20052;-71
2023/03/03 04:24:05;;;;;;;35.47;13.15;;;;;;;1.12;100.00;102182.28;6303563;28;20047;-71
2023/03/03 04:27:08;;;;;;;43.05;15.02;;;;;;;1.14;100.00;102185.78;6324965;28;20070;-71
2023/03/03 04:30:13;;;;;;;33.58;12.15;;;;;;;1.18;100.00;102184.06;6324822;28;20097;-72
2023/03/03 04:33:14;;;;;;;33.53;13.43;;;;;;;1.23;100.00;102187.59;6323289;28;20047;-71
2023/03/03 04:36:15;;;;;;;33.83;13.35;;;;;;;1.21;100.00;102182.38;6320860;28;20044;-71
2023/03/03 04:39:17;;;;;;;33.45;10.27;;;;;;;1.22;100.00;102186.69;6324750;28;20063;-71
2023/03/03 04:42:18;;;;;;;37.35;12.18;;;;;;;1.23;100.00;102178.09;6313497;28;20047;-71
2023/03/03 04:45:21;;;;;;;38.17;13.80;;;;;;;1.27;100.00;102187.63;6314848;28;20196;-71
2023/03/03 04:48:22;;;;;;;42.45;12.35;;;;;;;1.31;100.00;102183.31;6314046;28;20436;-71
2023/03/03 04:51:23;;;;;;;38.92;12.05;;;;;;;1.29;100.00;102179.84;6314623;28;20048;-71
2023/03/03 04:54:25;;;;;;;40.97;15.48;;;;;;;1.30;100.00;102181.56;6312571;28;20096;-71
2023/03/03 04:57:27;;;;;;;42.03;14.07;;;;;;;1.32;100.00;102182.47;6316911;28;20077;-71
2023/03/03 05:00:29;;;;;;;40.58;13.13;;;;;;;1.29;100.00;102187.63;6311985;28;20047;-72
2023/03/03 05:03:31;;;;;;;36.65;14.23;;;;;;;1.33;100.00;102185.94;6309150;28;20062;-71
2023/03/03 05:06:32;;;;;;;44.08;15.07;;;;;;;1.35;100.00;102186.78;6309499;28;20056;-71
2023/03/03 05:09:34;;;;;;;39.15;13.88;;;;;;;1.41;100.00;102184.25;6307369;28;20044;-72
2023/03/03 05:12:35;;;;;;;37.40;13.07;;;;;;;1.37;100.00;102185.97;6303290;28;20057;-72
2023/03/03 05:15:38;;;;;;;40.00;13.15;;;;;;;1.34;100.00;102179.88;6279569;28;20049;-71
2023/03/03 05:18:40;;;;;;;40.88;14.52;;;;;;;1.19;100.00;102165.09;6295618;28;20047;-72
2023/03/03 05:21:41;;;;;;;40.10;13.80;;;;;;;1.19;100.00;102168.56;6305972;28;20051;-72
2023/03/03 05:24:43;;;;;;;39.75;12.65;;;;;;;1.23;100.00;102164.28;6309009;28;20040;-71
2023/03/03 05:27:44;;;;;;;38.63;12.43;;;;;;;1.08;100.00;102170.16;6310448;28;20455;-72
2023/03/03 05:30:47;;;;;;;37.60;11.85;;;;;;;1.06;100.00;102169.31;6307650;28;20044;-72
2023/03/03 05:33:49;;;;;;;41.08;13.18;;;;;;;1.07;100.00;102165.84;6306295;28;20538;-72
2023/03/03 05:36:50;;;;;;;36.15;12.65;;;;;;;1.08;100.00;102162.41;6308212;28;20044;-72
2023/03/03 05:39:52;;;;;;;40.85;12.05;;;;;;;1.16;100.00;102165.06;6310333;28;20040;-71
2023/03/03 05:42:53;;;;;;;39.00;12.95;;;;;;;1.19;100.00;102163.38;6328518;28;20044;-71
2023/03/03 05:45:56;;;;;;;35.95;12.10;;;;;;;1.15;100.00;102160.75;6328273;28;20047;-71
2023/03/03 05:48:57;;;;;;;45.33;14.60;;;;;;;1.16;100.00;102162.47;6328292;28;20463;-71
2023/03/03 05:51:59;;;;;;;41.40;14.43;;;;;;;1.10;100.00;102160.72;6328276;28;20059;-71
2023/03/03 05:55:01;;;;;;;32.95;11.88;;;;;;;0.95;100.00;102174.41;6319427;28;20363;-71
2023/03/03 05:58:02;;;;;;;36.10;14.45;;;;;;;0.89;100.00;102178.63;6327851;28;20040;-71
2023/03/03 06:01:05;;;;;;;37.72;12.50;;;;;;;0.98;100.00;102181.31;6324564;28;20051;-71
2023/03/03 06:04:07;;;;;;;38.15;12.90;;;;;;;0.94;100.00;102185.56;6315351;28;20052;-71
2023/03/03 06:07:08;;;;;;;29.27;11.05;;;;;;;0.98;100.00;102197.69;6327725;28;20050;-71
2023/03/03 06:10:10;;;;;;;32.17;11.95;;;;;;;1.02;100.00;102207.22;6327324;28;20055;-71
2023/03/03 06:13:12;;;;;;;31.65;11.70;;;;;;;0.89;100.00;102215.72;6309690;28;20337;-71
2023/03/03 06:16:14;;;;;;;28.67;11.30;;;;;;;0.89;100.00;102220.91;6305651;28;20056;-72
2023/03/03 06:19:16;;;;;;;31.55;11.80;;;;;;;0.92;100.00;102227.84;6298810;28;20060;-72
2023/03/03 06:22:18;;;;;;;33.53;10.52;;;;;;;0.91;100.00;102232.16;6305580;28;20052;-73
2023/03/03 06:25:19;;;;;;;38.95;11.95;;;;;;;0.91;100.00;102233.84;6310002;28;20047;-72
2023/03/03 06:28:20;;;;;;;20.63;7.50;;;;;;;0.88;100.00;102237.28;6310643;28;20071;-72
2023/03/03 06:31:23;;;;;;;26.40;8.82;;;;;;;0.82;100.00;102237.22;6307726;28;20126;-72
2023/03/03 06:34:24;;;;;;;30.98;10.60;;;;;;;0.83;100.00;102233.78;6318117;28;20420;-72
2023/03/03 06:37:26;;;;;;;20.83;8.18;;;;;;;0.71;100.00;102231.91;6312729;28;20549;-72
2023/03/03 06:40:27;;;;;;;20.92;7.53;;;;;;;0.80;100.00;102238.91;6303479;28;20049;-73
2023/03/03 06:43:28;;;;;;;17.63;7.45;;;;;;;0.90;100.00;102237.28;6308831;28;20044;-73
2023/03/03 06:46:31;;;;;;;27.05;8.27;;;;;;;0.90;100.00;102238.16;6302637;28;20380;-73
2023/03/03 06:49:32;;;;;;;28.23;10.38;;;;;;;0.97;100.00;102242.56;6317515;28;20048;-73
2023/03/03 06:52:34;;;;;;;28.55;9.10;;;;;;;0.87;100.00;102239.88;6326591;28;20044;-73
2023/03/03 06:55:35;;;;;;;27.75;9.20;;;;;;;0.86;100.00;102238.97;6326034;28;20044;-73
2023/03/03 06:58:37;;;;;;;24.17;9.13;;;;;;;0.80;100.00;102246.69;6309666;28;20049;-74
2023/03/03 07:01:40;;;;;;;22.70;7.90;;;;;;;0.77;100.00;102249.22;6305935;28;20059;-73
2023/03/03 07:04:41;;;;;;;25.02;9.75;;;;;;;0.70;100.00;102248.31;6313385;28;20463;-73
2023/03/03 07:07:43;;;;;;;24.27;8.30;;;;;;;0.68;100.00;102242.25;6309353;28;20059;-73
2023/03/03 07:10:45;;;;;;;28.05;8.93;;;;;;;0.66;100.00;102243.06;6311405;28;20044;-73
2023/03/03 07:13:49;;;;;;;23.67;7.45;;;;;;;0.70;100.00;102240.53;6305994;28;20051;-73
2023/03/03 07:16:57;;;;;;;25.73;9.52;;;;;;;0.81;100.00;102250.13;6317609;28;20070;-72
2023/03/03 07:20:01;;;;;;;25.88;8.98;;;;;;;0.84;100.00;102245.00;6309258;28;20075;-73
2023/03/03 07:23:18;;;;;;;23.55;8.68;;;;;;;0.83;100.00;102251.03;6300676;28;20059;-74
2023/03/03 07:26:22;;;;;;;23.45;7.35;;;;;;;0.84;100.00;102256.22;6307816;28;20054;-73
2023/03/03 07:29:25;;;;;;;25.60;6.97;;;;;;;0.79;100.00;102246.66;6308510;28;20353;-73
2023/03/03 07:32:39;;;;;;;26.45;8.05;;;;;;;0.84;100.00;102253.63;6301784;28;20453;-73
2023/03/03 07:35:44;;;;;;;31.88;9.35;;;;;;;0.83;100.00;102257.06;6305861;28;20075;-73
2023/03/03 07:38:52;;;;;;;21.92;9.30;;;;;;;0.83;100.00;102263.97;6300959;28;20055;-73
2023/03/03 07:41:59;;;;;;;22.75;8.02;;;;;;;0.79;100.00;102269.97;6300143;28;20049;-73
2023/03/03 07:45:03;;;;;;;24.10;8.75;;;;;;;0.85;100.00;102265.72;6300217;28;20044;-73
2023/03/03 07:48:17;;;;;;;22.85;8.68;;;;;;;0.89;100.00;102269.19;6304755;28;20151;-73
2023/03/03 07:51:24;;;;;;;24.75;8.98;;;;;;;0.83;100.00;102270.00;6322679;28;20040;-73
2023/03/03 07:54:33;;;;;;;21.13;7.53;;;;;;;0.84;100.00;102265.69;6317784;28;20051;-73
2023/03/03 07:57:38;;;;;;;22.45;7.97;;;;;;;0.91;100.00;102270.97;6324364;28;20350;-73
2023/03/03 08:01:28;;;;;;;24.50;9.38;;;;;;;1.01;100.00;102280.56;6306418;28;20097;-73
2023/03/03 08:04:40;;;;;;;25.25;9.70;;;;;;;1.08;100.00;102284.06;6308350;28;20048;-73
2023/03/03 08:07:41;;;;;;;20.30;7.35;;;;;;;1.10;100.00;102277.22;6308607;28;20055;-73
2023/03/03 08:10:47;;;;;;;17.70;7.22;;;;;;;0.82;100.00;102278.63;6324953;28;20440;-73
2023/03/03 08:13:48;;;;;;;21.70;7.28;;;;;;;0.83;100.00;102287.25;6324923;28;20047;-72
2023/03/03 08:16:50;;;;;;;23.00;8.20;;;;;;;0.80;100.00;102280.31;6324805;28;20047;-73
2023/03/03 08:19:55;;;;;;;23.05;8.77;;;;;;;0.81;100.00;102278.59;6322998;28;20052;-73
2023/03/03 08:22:56;;;;;;;23.02;8.18;;;;;;;0.93;100.00;102284.78;6299984;28;20056;-73
2023/03/03 08:25:57;;;;;;;25.77;8.55;;;;;;;0.95;100.00;102284.78;6318728;28;20432;-72
2023/03/03 08:29:00;;;;;;;23.60;7.82;;;;;;;0.89;100.00;102287.31;6308034;28;20052;-72
2023/03/03 08:32:01;;;;;;;23.05;7.07;;;;;;;0.86;100.00;102292.44;6312050;28;20048;-73
2023/03/03 08:35:04;;;;;;;24.13;8.48;;;;;;;0.85;100.00;102294.16;6316637;28;20329;-74
2023/03/03 08:38:06;;;;;;;21.95;8.32;;;;;;;0.92;100.00;102298.59;6324414;28;20040;-73
2023/03/03 08:41:08;;;;;;;17.67;6.90;;;;;;;0.99;100.00;102302.09;6324773;28;20051;-73
2023/03/03 08:44:09;;;;;;;24.45;8.10;;;;;;;1.13;100.00;102297.94;6324460;28;20044;-73
2023/03/03 08:47:11;;;;;;;28.65;9.18;;;;;;;1.07;100.00;102297.88;6316389;28;20063;-73
2023/03/03 08:50:14;;;;;;;19.35;6.90;;;;;;;0.98;100.00;102302.94;6319805;28;20045;-73
2023/03/03 08:53:17;;;;;;;25.88;7.63;;;;;;;0.98;100.00;102300.38;6299399;28;20123;-73
2023/03/03 08:56:18;;;;;;;25.95;7.38;;;;;;;1.12;100.00;102303.09;6299107;28;20048;-73
2023/03/03 08:59:21;;;;;;;26.63;10.02;;;;;;;1.17;100.00;102297.13;6310460;28;20466;-73
2023/03/03 09:02:22;;;;;;;23.23;8.43;;;;;;;1.15;100.00;102298.84;6329331;28;20050;-72
2023/03/03 09:05:25;;;;;;;23.38;7.70;;;;;;;1.14;100.00;102304.00;6329023;28;20040;-72
2023/03/03 09:08:26;;;;;;;23.25;8.50;;;;;;;1.12;100.00;102305.69;6329062;28;20040;-73
2023/03/03 09:11:29;;;;;;;22.65;8.82;;;;;;;1.19;100.00;102305.78;6329016;28;20055;-73
2023/03/03 09:14:30;;;;;;;24.55;9.18;;;;;;;1.30;100.00;102305.00;6328979;28;20046;-73
2023/03/03 09:17:34;;;;;;;28.83;9.00;;;;;;;1.24;100.00;102303.25;6328720;28;20126;-74
2023/03/03 09:20:39;;;;;;;26.17;8.98;;;;;;;1.19;100.00;102299.75;6328984;28;20457;-73
2023/03/03 09:23:42;;;;;;;23.40;8.68;;;;;;;1.18;100.00;102303.16;6325570;28;20045;-72
2023/03/03 09:26:46;;;;;;;35.45;9.25;;;;;;;1.21;100.00;102301.47;6315027;28;20067;-73
2023/03/03 09:29:47;;;;;;;23.23;9.20;;;;;;;1.20;100.00;102297.16;6318161;28;20044;-73
2023/03/03 09:32:49;;;;;;;26.90;8.45;;;;;;;1.14;100.00;102291.06;6316397;28;20045;-73
2023/03/03 09:35:53;;;;;;;40.33;12.65;;;;;;;1.16;100.00;102299.69;6319411;28;20057;-73
2023/03/03 09:38:57;;;;;;;42.88;9.23;;;;;;;1.20;100.00;102302.34;6316585;28;20043;-73
2023/03/03 09:42:28;;;;;;;38.65;10.60;;;;;;;1.27;100.00;102303.25;6319437;28;20049;-73
2023/03/03 09:45:44;;;;;;;38.17;11.13;;;;;;;1.26;100.00;102298.94;6318143;28;20052;-73
2023/03/03 09:48:56;;;;;;;34.58;9.57;;;;;;;1.30;100.00;102302.44;6316518;28;20048;-73
2023/03/03 09:52:14;;;;;;;51.90;12.95;;;;;;;1.38;100.00;102298.19;6319265;28;20070;-73
2023/03/03 09:55:34;;;;;;;29.20;9.98;;;;;;;1.43;100.00;102301.69;6318670;28;20044;-73
2023/03/03 09:58:57;;;;;;;37.33;11.10;;;;;;;1.53;100.00;102299.19;6316707;28;20052;-73
2023/03/03 10:02:20;;;;;;;43.03;11.23;;;;;;;1.43;100.00;102299.97;6319161;28;20056;-75
2023/03/03 10:05:34;;;;;;;48.35;12.10;;;;;;;1.53;100.00;102309.56;6316342;28;20041;-72
2023/03/03 10:08:52;;;;;;;48.13;14.07;;;;;;;1.47;100.00;102312.09;6318757;28;20049;-72
2023/03/03 10:12:02;;;;;;;38.35;10.93;;;;;;;1.56;100.00;102310.44;6317739;28;20055;-72
2023/03/03 10:15:25;;;;;;;43.70;11.98;;;;;;;1.59;100.00;102305.28;6318631;28;20040;-72
2023/03/03 10:18:33;;;;;;;38.92;11.02;;;;;;;1.60;100.00;102304.44;6313846;28;20433;-73
2023/03/03 10:21:39;;;;;;;40.22;11.35;;;;;;;1.74;100.00;102308.88;6318228;28;20429;-73
2023/03/03 10:24:53;;;;;;;26.58;8.55;;;;;;;1.79;100.00;102314.09;6315750;28;20040;-73
2023/03/03 10:28:11;;;;;;;36.95;10.13;;;;;;;1.69;100.00;102312.31;6315675;28;20040;-73
2023/03/03 10:31:23;;;;;;;29.85;9.68;;;;;;;1.77;100.00;102318.38;6315595;28;20360;-73
2023/03/03 10:34:47;;;;;;;21.75;8.52;;;;;;;1.82;100.00;102310.66;6316208;28;20053;-72
2023/03/03 10:38:02;;;;;;;25.73;7.82;;;;;;;1.89;100.00;102315.03;6318286;28;20048;-72
2023/03/03 10:41:22;;;;;;;30.38;9.88;;;;;;;1.75;100.00;102318.38;6317992;28;20432;-72
2023/03/03 10:44:41;;;;;;;38.83;9.90;;;;;;;1.74;100.00;102315.78;6315988;28;20041;-72
2023/03/03 10:48:04;;;;;;;39.22;10.18;;;;;;;1.86;100.00;102322.78;6317725;28;20044;-73
2023/03/03 10:51:17;;;;;;;26.52;9.70;;;;;;;1.90;100.00;102328.00;6315347;28;20047;-73
2023/03/03 10:54:30;;;;;;;31.77;10.00;;;;;;;1.90;100.00;102324.53;6317963;28;20078;-71
2023/03/03 10:57:41;;;;;;;30.95;10.05;;;;;;;1.80;100.00;102320.16;6316654;28;20045;-71
2023/03/03 11:00:49;;;;;;;22.92;8.50;;;;;;;1.96;100.00;102319.44;6316423;28;20043;-72
2023/03/03 11:04:21;;;;;;;29.60;8.95;;;;;;;2.11;100.00;102322.13;6317535;28;20055;-72
2023/03/03 11:07:28;;;;;;;25.30;8.55;;;;;;;2.09;100.00;102318.66;6311287;28;20067;-73
2023/03/03 11:10:42;;;;;;;28.98;9.30;;;;;;;2.01;100.00;102325.50;6310889;28;20056;-72
2023/03/03 11:13:51;;;;;;;28.17;9.45;;;;;;;2.10;100.00;102316.94;6313464;28;20043;-72
2023/03/03 11:17:00;;;;;;;30.58;10.27;;;;;;;2.13;100.00;102322.97;6310915;28;20115;-73
2023/03/03 11:20:09;;;;;;;36.45;10.13;;;;;;;2.26;100.00;102324.81;6311253;28;20040;-72
2023/03/03 11:23:40;;;;;;;39.47;8.38;;;;;;;2.30;100.00;102325.69;6310479;28;20105;-71
2023/03/03 11:26:55;;;;;;;31.70;8.85;;;;;;;2.24;100.00;102316.16;6318696;28;20044;-72
2023/03/03 11:30:18;;;;;;;26.98;9.15;;;;;;;2.19;100.00;102311.81;6325881;28;20440;-72
2023/03/03 11:33:26;;;;;;;28.08;7.82;;;;;;;2.14;100.00;102316.97;6319897;28;20326;-72
2023/03/03 11:36:31;;;;;;;39.67;10.05;;;;;;;2.26;100.00;102306.66;6300247;28;20044;-72
2023/03/03 11:39:33;;;;;;;27.55;9.73;;;;;;;2.26;100.00;102314.44;6300351;28;20060;-73
2023/03/03 11:42:47;;;;;;;28.15;9.52;;;;;;;2.22;100.00;102307.47;6300560;28;20055;-72
2023/03/03 11:45:55;;;;;;;31.42;9.73;;;;;;;2.35;100.00;102302.38;6300173;28;20051;-71
2023/03/03 11:49:02;;;;;;;38.08;10.60;;;;;;;2.34;100.00;102295.47;6300361;28;20094;-71
2023/03/03 11:52:20;;;;;;;33.53;11.52;;;;;;;2.33;100.00;102298.91;6300224;28;20048;-71
2023/03/03 11:55:27;;;;;;;33.92;10.40;;;;;;;2.47;100.00;102287.75;6300230;28;20049;-71
2023/03/03 11:58:36;;;;;;;31.85;10.73;;;;;;;2.46;100.00;102286.03;6313626;28;20436;-72
2023/03/03 12:01:44;;;;;;;30.40;10.00;;;;;;;2.52;100.00;102282.59;6325355;28;20052;-72
2023/03/03 12:04:50;;;;;;;47.70;14.20;;;;;;;2.52;100.00;102274.81;6317524;28;20052;-73
2023/03/03 12:08:00;;;;;;;37.42;12.05;;;;;;;2.48;100.00;102270.44;6324903;28;20061;-73
2023/03/03 12:11:07;;;;;;;42.08;11.25;;;;;;;2.44;100.00;102269.56;6324808;28;20048;-72
2023/03/03 12:14:17;;;;;;;29.75;10.32;;;;;;;2.46;100.00;102270.47;6324823;28;20455;-72
2023/03/03 12:17:35;;;;;;;36.00;10.88;;;;;;;2.61;100.00;102277.44;6324565;28;20044;-73
2023/03/03 12:20:45;;;;;;;23.73;8.38;;;;;;;2.49;100.00;102264.41;6314247;28;20048;-72
2023/03/03 12:24:00;;;;;;;38.92;10.20;;;;;;;2.49;100.00;102259.22;6305219;28;20055;-73
2023/03/03 12:27:14;;;;;;;28.33;10.38;;;;;;;2.42;100.00;102263.50;6306896;28;20043;-74
2023/03/03 12:30:26;;;;;;;34.42;13.80;;;;;;;2.53;100.00;102255.75;6299460;28;20048;-73
2023/03/03 12:33:51;;;;;;;40.03;10.65;;;;;;;2.64;100.00;102253.22;6302169;28;20052;-73
2023/03/03 12:37:06;;;;;;;35.53;12.32;;;;;;;2.76;100.00;102255.84;6323368;28;20051;-73
2023/03/03 12:40:13;;;;;;;36.65;11.75;;;;;;;2.75;100.00;102255.00;6329785;28;20040;-73
2023/03/03 12:43:29;;;;;;;33.85;10.68;;;;;;;2.72;100.00;102242.00;6329973;28;20052;-73
2023/03/03 12:46:42;;;;;;;30.40;11.13;;;;;;;2.63;100.00;102247.16;6329651;28;20048;-73
2023/03/03 12:50:01;;;;;;;31.65;9.43;;;;;;;2.74;100.00;102250.66;6329870;28;20047;-73
2023/03/03 12:53:18;;;;;;;43.92;11.10;;;;;;;2.78;100.00;102243.75;6329878;28;20040;-73
2023/03/03 12:56:29;;;;;;;26.45;10.18;;;;;;;2.69;100.00;102242.00;6327687;28;20055;-73
2023/03/03 12:59:38;;;;;;;24.60;10.07;;;;;;;2.69;100.00;102234.22;6329589;28;20047;-72
2023/03/03 13:02:48;;;;;;;27.52;11.05;;;;;;;2.82;100.00;102236.81;6321118;28;20352;-73
2023/03/03 13:06:00;;;;;;;39.55;9.63;;;;;;;2.83;100.00;102229.06;6329154;28;20044;-72
2023/03/03 13:09:14;;;;;;;26.65;8.30;;;;;;;2.78;100.00;102220.41;6325453;28;20044;-73
2023/03/03 13:12:28;;;;;;;15.40;6.05;;;;;;;2.79;100.00;102219.53;6329253;28;20051;-72
2023/03/03 13:15:35;;;;;;;16.63;7.22;;;;;;;2.79;100.00;102212.59;6327585;28;20055;-72
2023/03/03 13:18:49;;;;;;;20.13;8.43;;;;;;;2.76;100.00;102207.41;6329114;28;20048;-72
2023/03/03 13:21:57;;;;;;;25.08;7.80;;;;;;;3.00;100.00;102209.19;6328914;28;20052;-73
2023/03/03 13:25:06;;;;;;;18.80;6.95;;;;;;;3.08;100.00;102210.91;6327190;28;20178;-72
2023/03/03 13:28:16;;;;;;;16.98;7.28;;;;;;;3.15;100.00;102200.53;6328579;28;20047;-73
2023/03/03 13:31:21;;;;;;;19.90;7.20;;;;;;;3.18;100.00;102203.16;6328906;28;20044;-72
2023/03/03 13:34:35;;;;;;;21.52;7.57;;;;;;;3.28;100.00;102199.69;6328990;28;20040;-72
2023/03/03 13:37:42;;;;;;;16.83;7.15;;;;;;;3.41;100.00;102197.97;6328782;28;20051;-73
2023/03/03 13:40:46;;;;;;;15.98;6.18;;;;;;;3.87;100.00;102179.69;6328626;28;20071;-73
2023/03/03 13:43:52;;;;;;;20.20;8.27;;;;;;;4.28;100.00;102176.94;6326810;28;20048;-73
2023/03/03 13:47:03;;;;;;;18.60;7.60;;;;;;;4.44;100.00;102171.66;6304250;28;20056;-73
2023/03/03 13:50:18;;;;;;;20.15;7.40;;;;;;;4.40;100.00;102168.19;6324483;28;20110;-73
2023/03/03 13:53:37;;;;;;;20.20;7.43;;;;;;;4.50;100.00;102163.84;6303090;28;20048;-73
2023/03/03 13:57:02;;;;;;;17.60;7.55;;;;;;;4.80;100.00;102158.41;6323580;28;20055;-73
2023/03/03 14:00:15;;;;;;;14.07;6.53;;;;;;;4.89;100.00;102161.84;6323135;28;20040;-73
2023/03/03 14:03:35;;;;;;;18.38;7.25;;;;;;;5.07;100.00;102161.72;6328095;28;20134;-73
2023/03/03 14:06:41;;;;;;;12.02;5.93;;;;;;;5.28;100.00;102156.31;6327587;28;20459;-73
2023/03/03 14:09:58;;;;;;;18.88;6.63;;;;;;;5.67;100.00;102156.81;6327563;28;20051;-73